sensor_id;sensor_type;location;lat;lon;timestamp;pressure;altitude;pressure_sealevel;temperature
8227;BMP180;4154;48.810;9.012;2023-07-29T00:00:44;96695.00;;;17.20
8227;BMP180;4154;48.810;9.012;2023-07-29T00:03:10;96692.00;;;17.20
8227;BMP180;4154;48.810;9.012;2023-07-29T00:05:40;96685.00;;;17.20
8227;BMP180;4154;48.810;9.012;2023-07-29T00:08:07;96692.00;;;17.20
8227;BMP180;4154;48.810;9.012;2023-07-29T00:10:35;96677.00;;;17.20
8227;BMP180;4154;48.810;9.012;2023-07-29T00:13:01;96681.00;;;17.20
8227;BMP180;4154;48.810;9.012;2023-07-29T00:15:27;96679.00;;;17.20
8227;BMP180;4154;48.810;9.012;2023-07-29T00:17:53;96675.00;;;17.20
8227;BMP180;4154;48.810;9.012;2023-07-29T00:20:19;96682.00;;;17.20
8227;BMP180;4154;48.810;9.012;2023-07-29T00:22:45;96685.00;;;17.20
8227;BMP180;4154;48.810;9.012;2023-07-29T00:25:11;96698.00;;;17.20
8227;BMP180;4154;48.810;9.012;2023-07-29T00:27:37;96687.00;;;17.20
8227;BMP180;4154;48.810;9.012;2023-07-29T00:30:04;96680.00;;;17.20
8227;BMP180;4154;48.810;9.012;2023-07-29T00:32:30;96684.00;;;17.20
8227;BMP180;4154;48.810;9.012;2023-07-29T00:34:57;96683.00;;;17.20
8227;BMP180;4154;48.810;9.012;2023-07-29T00:37:22;96676.00;;;17.20
8227;BMP180;4154;48.810;9.012;2023-07-29T00:39:48;96677.00;;;17.20
8227;BMP180;4154;48.810;9.012;2023-07-29T00:42:15;96673.00;;;17.20
8227;BMP180;4154;48.810;9.012;2023-07-29T00:44:41;96674.00;;;17.20
8227;BMP180;4154;48.810;9.012;2023-07-29T00:47:07;96672.00;;;17.20
8227;BMP180;4154;48.810;9.012;2023-07-29T00:49:33;96673.00;;;17.20
8227;BMP180;4154;48.810;9.012;2023-07-29T00:52:00;96679.00;;;17.20
8227;BMP180;4154;48.810;9.012;2023-07-29T00:54:26;96678.00;;;17.30
8227;BMP180;4154;48.810;9.012;2023-07-29T00:56:52;96669.00;;;17.30
8227;BMP180;4154;48.810;9.012;2023-07-29T00:59:18;96667.00;;;17.30
8227;BMP180;4154;48.810;9.012;2023-07-29T01:01:44;96658.00;;;17.30
8227;BMP180;4154;48.810;9.012;2023-07-29T01:04:10;96660.00;;;17.30
8227;BMP180;4154;48.810;9.012;2023-07-29T01:07:02;96642.00;;;17.30
8227;BMP180;4154;48.810;9.012;2023-07-29T01:12:28;96655.00;;;17.30
8227;BMP180;4154;48.810;9.012;2023-07-29T01:15:11;96662.00;;;17.30
8227;BMP180;4154;48.810;9.012;2023-07-29T01:17:55;96654.00;;;17.30
8227;BMP180;4154;48.810;9.012;2023-07-29T01:20:25;96656.00;;;17.30
8227;BMP180;4154;48.810;9.012;2023-07-29T01:22:51;96652.00;;;17.30
8227;BMP180;4154;48.810;9.012;2023-07-29T01:25:17;96652.00;;;17.30
8227;BMP180;4154;48.810;9.012;2023-07-29T01:27:47;96655.00;;;17.30
8227;BMP180;4154;48.810;9.012;2023-07-29T01:30:13;96654.00;;;17.30
8227;BMP180;4154;48.810;9.012;2023-07-29T01:33:15;96665.00;;;17.30
8227;BMP180;4154;48.810;9.012;2023-07-29T01:35:57;96654.00;;;17.30
8227;BMP180;4154;48.810;9.012;2023-07-29T01:38:35;96648.00;;;17.30
8227;BMP180;4154;48.810;9.012;2023-07-29T01:41:04;96657.00;;;17.30
8227;BMP180;4154;48.810;9.012;2023-07-29T01:43:32;96654.00;;;17.30
8227;BMP180;4154;48.810;9.012;2023-07-29T01:45:58;96647.00;;;17.30
8227;BMP180;4154;48.810;9.012;2023-07-29T01:48:24;96640.00;;;17.30
8227;BMP180;4154;48.810;9.012;2023-07-29T01:50:51;96643.00;;;17.30
8227;BMP180;4154;48.810;9.012;2023-07-29T01:53:17;96635.00;;;17.30
8227;BMP180;4154;48.810;9.012;2023-07-29T01:55:43;96633.00;;;17.30
8227;BMP180;4154;48.810;9.012;2023-07-29T01:58:10;96633.00;;;17.30
8227;BMP180;4154;48.810;9.012;2023-07-29T02:00:36;96622.00;;;17.30
8227;BMP180;4154;48.810;9.012;2023-07-29T02:03:02;96633.00;;;17.30
8227;BMP180;4154;48.810;9.012;2023-07-29T02:05:28;96636.00;;;17.30
8227;BMP180;4154;48.810;9.012;2023-07-29T02:07:54;96624.00;;;17.30
8227;BMP180;4154;48.810;9.012;2023-07-29T02:10:21;96626.00;;;17.20
8227;BMP180;4154;48.810;9.012;2023-07-29T02:12:47;96615.00;;;17.20
8227;BMP180;4154;48.810;9.012;2023-07-29T02:15:13;96618.00;;;17.20
8227;BMP180;4154;48.810;9.012;2023-07-29T02:17:41;96620.00;;;17.20
8227;BMP180;4154;48.810;9.012;2023-07-29T02:20:08;96623.00;;;17.20
8227;BMP180;4154;48.810;9.012;2023-07-29T02:22:34;96623.00;;;17.20
8227;BMP180;4154;48.810;9.012;2023-07-29T02:25:00;96620.00;;;17.20
8227;BMP180;4154;48.810;9.012;2023-07-29T02:27:27;96619.00;;;17.20
8227;BMP180;4154;48.810;9.012;2023-07-29T02:29:54;96619.00;;;17.20
8227;BMP180;4154;48.810;9.012;2023-07-29T02:32:20;96621.00;;;17.30
8227;BMP180;4154;48.810;9.012;2023-07-29T02:34:46;96609.00;;;17.20
8227;BMP180;4154;48.810;9.012;2023-07-29T02:37:12;96611.00;;;17.20
8227;BMP180;4154;48.810;9.012;2023-07-29T02:39:38;96607.00;;;17.20
8227;BMP180;4154;48.810;9.012;2023-07-29T02:42:04;96612.00;;;17.20
8227;BMP180;4154;48.810;9.012;2023-07-29T02:44:30;96617.00;;;17.20
8227;BMP180;4154;48.810;9.012;2023-07-29T02:46:56;96614.00;;;17.10
8227;BMP180;4154;48.810;9.012;2023-07-29T02:49:23;96616.00;;;17.20
8227;BMP180;4154;48.810;9.012;2023-07-29T02:51:49;96618.00;;;17.20
8227;BMP180;4154;48.810;9.012;2023-07-29T02:54:15;96613.00;;;17.20
8227;BMP180;4154;48.810;9.012;2023-07-29T02:56:41;96611.00;;;17.20
8227;BMP180;4154;48.810;9.012;2023-07-29T02:59:07;96601.00;;;17.20
8227;BMP180;4154;48.810;9.012;2023-07-29T03:01:33;96587.00;;;17.20
8227;BMP180;4154;48.810;9.012;2023-07-29T03:03:59;96589.00;;;17.10
8227;BMP180;4154;48.810;9.012;2023-07-29T03:06:25;96593.00;;;17.20
8227;BMP180;4154;48.810;9.012;2023-07-29T03:08:51;96583.00;;;17.20
8227;BMP180;4154;48.810;9.012;2023-07-29T03:11:17;96587.00;;;17.20
8227;BMP180;4154;48.810;9.012;2023-07-29T03:13:44;96581.00;;;17.10
8227;BMP180;4154;48.810;9.012;2023-07-29T03:16:15;96582.00;;;17.20
8227;BMP180;4154;48.810;9.012;2023-07-29T03:18:43;96582.00;;;17.10
8227;BMP180;4154;48.810;9.012;2023-07-29T03:21:10;96594.00;;;17.10
8227;BMP180;4154;48.810;9.012;2023-07-29T03:23:37;96592.00;;;17.10
8227;BMP180;4154;48.810;9.012;2023-07-29T03:26:04;96591.00;;;17.10
8227;BMP180;4154;48.810;9.012;2023-07-29T03:28:41;96594.00;;;17.10
8227;BMP180;4154;48.810;9.012;2023-07-29T03:31:07;96581.00;;;17.10
8227;BMP180;4154;48.810;9.012;2023-07-29T03:33:33;96584.00;;;17.20
8227;BMP180;4154;48.810;9.012;2023-07-29T03:35:59;96579.00;;;17.20
8227;BMP180;4154;48.810;9.012;2023-07-29T03:38:25;96578.00;;;17.20
8227;BMP180;4154;48.810;9.012;2023-07-29T03:40:52;96575.00;;;17.20
8227;BMP180;4154;48.810;9.012;2023-07-29T03:43:19;96576.00;;;17.30
8227;BMP180;4154;48.810;9.012;2023-07-29T03:45:45;96578.00;;;17.30
8227;BMP180;4154;48.810;9.012;2023-07-29T03:48:11;96585.00;;;17.30
8227;BMP180;4154;48.810;9.012;2023-07-29T03:50:38;96576.00;;;17.20
8227;BMP180;4154;48.810;9.012;2023-07-29T03:53:05;96579.00;;;17.30
8227;BMP180;4154;48.810;9.012;2023-07-29T03:55:32;96575.00;;;17.30
8227;BMP180;4154;48.810;9.012;2023-07-29T03:57:59;96582.00;;;17.30
8227;BMP180;4154;48.810;9.012;2023-07-29T04:00:25;96569.00;;;17.30
8227;BMP180;4154;48.810;9.012;2023-07-29T04:02:52;96566.00;;;17.30
8227;BMP180;4154;48.810;9.012;2023-07-29T04:05:18;96577.00;;;17.30
8227;BMP180;4154;48.810;9.012;2023-07-29T04:07:44;96574.00;;;17.30
8227;BMP180;4154;48.810;9.012;2023-07-29T04:10:10;96568.00;;;17.30
8227;BMP180;4154;48.810;9.012;2023-07-29T04:12:36;96564.00;;;17.30
8227;BMP180;4154;48.810;9.012;2023-07-29T04:15:06;96563.00;;;17.30
8227;BMP180;4154;48.810;9.012;2023-07-29T04:17:32;96576.00;;;17.30
8227;BMP180;4154;48.810;9.012;2023-07-29T04:19:58;96581.00;;;17.30
8227;BMP180;4154;48.810;9.012;2023-07-29T04:22:24;96585.00;;;17.30
8227;BMP180;4154;48.810;9.012;2023-07-29T04:24:50;96591.00;;;17.30
8227;BMP180;4154;48.810;9.012;2023-07-29T04:27:16;96575.00;;;17.30
8227;BMP180;4154;48.810;9.012;2023-07-29T04:29:42;96581.00;;;17.30
8227;BMP180;4154;48.810;9.012;2023-07-29T04:32:08;96588.00;;;17.30
8227;BMP180;4154;48.810;9.012;2023-07-29T04:34:34;96590.00;;;17.40
8227;BMP180;4154;48.810;9.012;2023-07-29T04:37:00;96604.00;;;17.40
8227;BMP180;4154;48.810;9.012;2023-07-29T04:39:27;96604.00;;;17.40
8227;BMP180;4154;48.810;9.012;2023-07-29T04:41:53;96606.00;;;17.40
8227;BMP180;4154;48.810;9.012;2023-07-29T04:44:19;96597.00;;;17.40
8227;BMP180;4154;48.810;9.012;2023-07-29T04:46:45;96612.00;;;17.40
8227;BMP180;4154;48.810;9.012;2023-07-29T04:49:11;96591.00;;;17.40
8227;BMP180;4154;48.810;9.012;2023-07-29T04:51:37;96587.00;;;17.40
8227;BMP180;4154;48.810;9.012;2023-07-29T04:54:04;96577.00;;;17.40
8227;BMP180;4154;48.810;9.012;2023-07-29T04:56:30;96562.00;;;17.40
8227;BMP180;4154;48.810;9.012;2023-07-29T04:58:56;96567.00;;;17.40
8227;BMP180;4154;48.810;9.012;2023-07-29T05:01:22;96581.00;;;17.40
8227;BMP180;4154;48.810;9.012;2023-07-29T05:03:48;96576.00;;;17.40
8227;BMP180;4154;48.810;9.012;2023-07-29T05:06:14;96577.00;;;17.40
8227;BMP180;4154;48.810;9.012;2023-07-29T05:08:40;96572.00;;;17.40
8227;BMP180;4154;48.810;9.012;2023-07-29T05:11:07;96568.00;;;17.40
8227;BMP180;4154;48.810;9.012;2023-07-29T05:13:51;96564.00;;;17.40
8227;BMP180;4154;48.810;9.012;2023-07-29T05:16:35;96560.00;;;17.40
8227;BMP180;4154;48.810;9.012;2023-07-29T05:19:08;96564.00;;;17.40
8227;BMP180;4154;48.810;9.012;2023-07-29T05:21:35;96560.00;;;17.50
8227;BMP180;4154;48.810;9.012;2023-07-29T05:24:01;96561.00;;;17.50
8227;BMP180;4154;48.810;9.012;2023-07-29T05:26:27;96562.00;;;17.60
8227;BMP180;4154;48.810;9.012;2023-07-29T05:28:53;96561.00;;;17.50
8227;BMP180;4154;48.810;9.012;2023-07-29T05:31:20;96572.00;;;17.50
8227;BMP180;4154;48.810;9.012;2023-07-29T05:33:46;96576.00;;;17.50
8227;BMP180;4154;48.810;9.012;2023-07-29T05:39:15;96577.00;;;17.50
8227;BMP180;4154;48.810;9.012;2023-07-29T05:41:41;96584.00;;;17.50
8227;BMP180;4154;48.810;9.012;2023-07-29T05:44:08;96585.00;;;17.60
8227;BMP180;4154;48.810;9.012;2023-07-29T05:47:01;96577.00;;;17.60
8227;BMP180;4154;48.810;9.012;2023-07-29T05:49:43;96574.00;;;17.70
8227;BMP180;4154;48.810;9.012;2023-07-29T05:52:17;96574.00;;;17.70
8227;BMP180;4154;48.810;9.012;2023-07-29T05:54:56;96563.00;;;17.70
8227;BMP180;4154;48.810;9.012;2023-07-29T05:57:28;96575.00;;;17.70
8227;BMP180;4154;48.810;9.012;2023-07-29T06:00:23;96574.00;;;17.80
8227;BMP180;4154;48.810;9.012;2023-07-29T06:02:49;96570.00;;;17.80
8227;BMP180;4154;48.810;9.012;2023-07-29T06:05:15;96563.00;;;17.80
8227;BMP180;4154;48.810;9.012;2023-07-29T06:07:40;96560.00;;;17.80
8227;BMP180;4154;48.810;9.012;2023-07-29T06:10:11;96570.00;;;17.90
8227;BMP180;4154;48.810;9.012;2023-07-29T06:12:38;96558.00;;;17.90
8227;BMP180;4154;48.810;9.012;2023-07-29T06:15:05;96566.00;;;18.00
8227;BMP180;4154;48.810;9.012;2023-07-29T06:17:31;96578.00;;;18.00
8227;BMP180;4154;48.810;9.012;2023-07-29T06:19:57;96579.00;;;18.00
8227;BMP180;4154;48.810;9.012;2023-07-29T06:22:23;96576.00;;;18.10
8227;BMP180;4154;48.810;9.012;2023-07-29T06:24:49;96577.00;;;18.10
8227;BMP180;4154;48.810;9.012;2023-07-29T06:27:15;96587.00;;;18.10
8227;BMP180;4154;48.810;9.012;2023-07-29T06:29:41;96592.00;;;18.10
8227;BMP180;4154;48.810;9.012;2023-07-29T06:32:10;96592.00;;;18.10
8227;BMP180;4154;48.810;9.012;2023-07-29T06:34:36;96593.00;;;18.10
8227;BMP180;4154;48.810;9.012;2023-07-29T06:37:02;96593.00;;;18.10
8227;BMP180;4154;48.810;9.012;2023-07-29T06:39:28;96601.00;;;18.20
8227;BMP180;4154;48.810;9.012;2023-07-29T06:41:54;96593.00;;;18.20
8227;BMP180;4154;48.810;9.012;2023-07-29T06:44:20;96585.00;;;18.20
8227;BMP180;4154;48.810;9.012;2023-07-29T06:46:46;96588.00;;;18.20
8227;BMP180;4154;48.810;9.012;2023-07-29T06:49:24;96595.00;;;18.20
8227;BMP180;4154;48.810;9.012;2023-07-29T06:52:01;96603.00;;;18.20
8227;BMP180;4154;48.810;9.012;2023-07-29T06:54:45;96601.00;;;18.20
8227;BMP180;4154;48.810;9.012;2023-07-29T07:00:45;96613.00;;;18.30
8227;BMP180;4154;48.810;9.012;2023-07-29T07:03:12;96617.00;;;18.30
8227;BMP180;4154;48.810;9.012;2023-07-29T07:05:38;96624.00;;;18.30
8227;BMP180;4154;48.810;9.012;2023-07-29T07:08:04;96618.00;;;18.30
8227;BMP180;4154;48.810;9.012;2023-07-29T07:10:30;96616.00;;;18.30
8227;BMP180;4154;48.810;9.012;2023-07-29T07:13:00;96613.00;;;18.30
8227;BMP180;4154;48.810;9.012;2023-07-29T07:15:26;96611.00;;;18.30
8227;BMP180;4154;48.810;9.012;2023-07-29T07:17:52;96606.00;;;18.40
8227;BMP180;4154;48.810;9.012;2023-07-29T07:20:18;96600.00;;;18.40
8227;BMP180;4154;48.810;9.012;2023-07-29T07:22:53;96602.00;;;18.40
8227;BMP180;4154;48.810;9.012;2023-07-29T07:25:25;96611.00;;;18.50
8227;BMP180;4154;48.810;9.012;2023-07-29T07:27:51;96621.00;;;18.50
8227;BMP180;4154;48.810;9.012;2023-07-29T07:30:18;96621.00;;;18.50
8227;BMP180;4154;48.810;9.012;2023-07-29T07:32:44;96631.00;;;18.50
8227;BMP180;4154;48.810;9.012;2023-07-29T07:35:11;96620.00;;;18.60
8227;BMP180;4154;48.810;9.012;2023-07-29T07:37:37;96633.00;;;18.60
8227;BMP180;4154;48.810;9.012;2023-07-29T07:40:07;96620.00;;;18.60
8227;BMP180;4154;48.810;9.012;2023-07-29T07:42:33;96625.00;;;18.70
8227;BMP180;4154;48.810;9.012;2023-07-29T07:45:02;96628.00;;;18.70
8227;BMP180;4154;48.810;9.012;2023-07-29T07:47:28;96627.00;;;18.70
8227;BMP180;4154;48.810;9.012;2023-07-29T07:49:54;96629.00;;;18.70
8227;BMP180;4154;48.810;9.012;2023-07-29T07:52:20;96611.00;;;18.70
8227;BMP180;4154;48.810;9.012;2023-07-29T07:54:51;96607.00;;;18.70
8227;BMP180;4154;48.810;9.012;2023-07-29T07:57:17;96605.00;;;18.70
8227;BMP180;4154;48.810;9.012;2023-07-29T07:59:43;96608.00;;;18.80
8227;BMP180;4154;48.810;9.012;2023-07-29T08:02:09;96615.00;;;18.80
8227;BMP180;4154;48.810;9.012;2023-07-29T08:04:35;96625.00;;;18.90
8227;BMP180;4154;48.810;9.012;2023-07-29T08:07:01;96631.00;;;19.00
8227;BMP180;4154;48.810;9.012;2023-07-29T08:09:27;96633.00;;;19.00
8227;BMP180;4154;48.810;9.012;2023-07-29T08:11:53;96644.00;;;19.20
8227;BMP180;4154;48.810;9.012;2023-07-29T08:14:19;96655.00;;;19.20
8227;BMP180;4154;48.810;9.012;2023-07-29T08:16:45;96665.00;;;19.20
8227;BMP180;4154;48.810;9.012;2023-07-29T08:19:11;96663.00;;;19.30
8227;BMP180;4154;48.810;9.012;2023-07-29T08:21:37;96655.00;;;19.30
8227;BMP180;4154;48.810;9.012;2023-07-29T08:24:03;96651.00;;;19.30
8227;BMP180;4154;48.810;9.012;2023-07-29T08:26:30;96655.00;;;19.30
8227;BMP180;4154;48.810;9.012;2023-07-29T08:28:56;96653.00;;;19.30
8227;BMP180;4154;48.810;9.012;2023-07-29T08:31:22;96654.00;;;19.30
8227;BMP180;4154;48.810;9.012;2023-07-29T08:33:48;96658.00;;;19.30
8227;BMP180;4154;48.810;9.012;2023-07-29T08:36:14;96651.00;;;19.30
8227;BMP180;4154;48.810;9.012;2023-07-29T08:38:40;96645.00;;;19.40
8227;BMP180;4154;48.810;9.012;2023-07-29T08:41:24;96649.00;;;19.50
8227;BMP180;4154;48.810;9.012;2023-07-29T08:43:58;96648.00;;;19.50
8227;BMP180;4154;48.810;9.012;2023-07-29T08:46:26;96641.00;;;19.60
8227;BMP180;4154;48.810;9.012;2023-07-29T08:48:53;96649.00;;;19.60
8227;BMP180;4154;48.810;9.012;2023-07-29T08:51:20;96652.00;;;19.70
8227;BMP180;4154;48.810;9.012;2023-07-29T08:53:47;96651.00;;;19.70
8227;BMP180;4154;48.810;9.012;2023-07-29T08:56:14;96657.00;;;19.80
8227;BMP180;4154;48.810;9.012;2023-07-29T08:58:40;96646.00;;;19.90
8227;BMP180;4154;48.810;9.012;2023-07-29T09:01:07;96647.00;;;19.90
8227;BMP180;4154;48.810;9.012;2023-07-29T09:03:33;96641.00;;;19.90
8227;BMP180;4154;48.810;9.012;2023-07-29T09:06:01;96645.00;;;20.00
8227;BMP180;4154;48.810;9.012;2023-07-29T09:08:55;96634.00;;;20.10
8227;BMP180;4154;48.810;9.012;2023-07-29T09:11:40;96634.00;;;20.20
8227;BMP180;4154;48.810;9.012;2023-07-29T09:14:13;96636.00;;;20.30
8227;BMP180;4154;48.810;9.012;2023-07-29T09:16:58;96621.00;;;20.50
8227;BMP180;4154;48.810;9.012;2023-07-29T09:19:35;96609.00;;;20.50
8227;BMP180;4154;48.810;9.012;2023-07-29T09:22:01;96601.00;;;20.60
8227;BMP180;4154;48.810;9.012;2023-07-29T09:24:31;96619.00;;;20.60
8227;BMP180;4154;48.810;9.012;2023-07-29T09:26:58;96617.00;;;20.60
8227;BMP180;4154;48.810;9.012;2023-07-29T09:29:28;96616.00;;;20.70
8227;BMP180;4154;48.810;9.012;2023-07-29T09:32:33;96623.00;;;20.70
8227;BMP180;4154;48.810;9.012;2023-07-29T09:34:59;96612.00;;;20.80
8227;BMP180;4154;48.810;9.012;2023-07-29T09:37:25;96632.00;;;20.80
8227;BMP180;4154;48.810;9.012;2023-07-29T09:39:52;96645.00;;;20.80
8227;BMP180;4154;48.810;9.012;2023-07-29T09:42:22;96631.00;;;20.90
8227;BMP180;4154;48.810;9.012;2023-07-29T09:44:50;96621.00;;;20.70
8227;BMP180;4154;48.810;9.012;2023-07-29T09:47:34;96631.00;;;20.80
8227;BMP180;4154;48.810;9.012;2023-07-29T09:50:00;96633.00;;;20.70
8227;BMP180;4154;48.810;9.012;2023-07-29T09:52:26;96633.00;;;20.70
8227;BMP180;4154;48.810;9.012;2023-07-29T09:54:52;96635.00;;;20.70
8227;BMP180;4154;48.810;9.012;2023-07-29T09:57:19;96630.00;;;20.70
8227;BMP180;4154;48.810;9.012;2023-07-29T09:59:57;96634.00;;;20.70
8227;BMP180;4154;48.810;9.012;2023-07-29T10:02:23;96631.00;;;20.80
8227;BMP180;4154;48.810;9.012;2023-07-29T10:04:52;96632.00;;;20.80
8227;BMP180;4154;48.810;9.012;2023-07-29T10:07:19;96635.00;;;20.90
8227;BMP180;4154;48.810;9.012;2023-07-29T10:09:45;96640.00;;;20.90
8227;BMP180;4154;48.810;9.012;2023-07-29T10:12:13;96633.00;;;20.90
8227;BMP180;4154;48.810;9.012;2023-07-29T10:14:39;96636.00;;;20.80
8227;BMP180;4154;48.810;9.012;2023-07-29T10:17:05;96646.00;;;20.60
8227;BMP180;4154;48.810;9.012;2023-07-29T10:19:32;96657.00;;;20.60
8227;BMP180;4154;48.810;9.012;2023-07-29T10:22:00;96654.00;;;20.50
8227;BMP180;4154;48.810;9.012;2023-07-29T10:24:33;96653.00;;;20.40
8227;BMP180;4154;48.810;9.012;2023-07-29T10:27:01;96656.00;;;20.40
8227;BMP180;4154;48.810;9.012;2023-07-29T10:29:38;96651.00;;;20.40
8227;BMP180;4154;48.810;9.012;2023-07-29T10:32:11;96661.00;;;20.30
8227;BMP180;4154;48.810;9.012;2023-07-29T10:34:37;96650.00;;;20.20
8227;BMP180;4154;48.810;9.012;2023-07-29T10:37:03;96653.00;;;20.30
8227;BMP180;4154;48.810;9.012;2023-07-29T10:39:38;96646.00;;;20.20
8227;BMP180;4154;48.810;9.012;2023-07-29T10:42:06;96658.00;;;20.30
8227;BMP180;4154;48.810;9.012;2023-07-29T10:47:28;96654.00;;;20.50
8227;BMP180;4154;48.810;9.012;2023-07-29T10:49:59;96655.00;;;20.60
8227;BMP180;4154;48.810;9.012;2023-07-29T10:55:03;96635.00;;;20.90
8227;BMP180;4154;48.810;9.012;2023-07-29T10:57:38;96642.00;;;21.00
8227;BMP180;4154;48.810;9.012;2023-07-29T11:00:08;96651.00;;;21.00
8227;BMP180;4154;48.810;9.012;2023-07-29T11:02:38;96648.00;;;21.10
8227;BMP180;4154;48.810;9.012;2023-07-29T11:05:17;96646.00;;;21.20
8227;BMP180;4154;48.810;9.012;2023-07-29T11:07:45;96651.00;;;21.30
8227;BMP180;4154;48.810;9.012;2023-07-29T11:10:13;96652.00;;;21.40
8227;BMP180;4154;48.810;9.012;2023-07-29T11:12:49;96656.00;;;21.40
8227;BMP180;4154;48.810;9.012;2023-07-29T11:15:28;96651.00;;;21.40
8227;BMP180;4154;48.810;9.012;2023-07-29T11:17:59;96641.00;;;21.40
8227;BMP180;4154;48.810;9.012;2023-07-29T11:20:31;96646.00;;;21.40
8227;BMP180;4154;48.810;9.012;2023-07-29T11:23:02;96635.00;;;21.40
8227;BMP180;4154;48.810;9.012;2023-07-29T11:25:31;96645.00;;;21.30
8227;BMP180;4154;48.810;9.012;2023-07-29T11:27:58;96640.00;;;21.40
8227;BMP180;4154;48.810;9.012;2023-07-29T11:30:25;96647.00;;;21.50
8227;BMP180;4154;48.810;9.012;2023-07-29T11:32:56;96632.00;;;21.50
8227;BMP180;4154;48.810;9.012;2023-07-29T11:35:23;96625.00;;;21.60
8227;BMP180;4154;48.810;9.012;2023-07-29T11:37:52;96631.00;;;21.70
8227;BMP180;4154;48.810;9.012;2023-07-29T11:40:22;96643.00;;;21.70
8227;BMP180;4154;48.810;9.012;2023-07-29T11:42:51;96645.00;;;21.70
8227;BMP180;4154;48.810;9.012;2023-07-29T11:45:18;96635.00;;;21.70
8227;BMP180;4154;48.810;9.012;2023-07-29T11:47:45;96635.00;;;21.70
8227;BMP180;4154;48.810;9.012;2023-07-29T11:50:12;96631.00;;;21.80
8227;BMP180;4154;48.810;9.012;2023-07-29T11:52:45;96639.00;;;21.90
8227;BMP180;4154;48.810;9.012;2023-07-29T11:55:13;96640.00;;;21.90
8227;BMP180;4154;48.810;9.012;2023-07-29T11:57:40;96639.00;;;22.00
8227;BMP180;4154;48.810;9.012;2023-07-29T12:00:09;96626.00;;;22.20
8227;BMP180;4154;48.810;9.012;2023-07-29T12:02:41;96637.00;;;22.40
8227;BMP180;4154;48.810;9.012;2023-07-29T12:05:09;96632.00;;;22.40
8227;BMP180;4154;48.810;9.012;2023-07-29T12:07:37;96624.00;;;22.50
8227;BMP180;4154;48.810;9.012;2023-07-29T12:10:04;96617.00;;;22.50
8227;BMP180;4154;48.810;9.012;2023-07-29T12:12:30;96629.00;;;22.60
8227;BMP180;4154;48.810;9.012;2023-07-29T12:14:57;96628.00;;;22.70
8227;BMP180;4154;48.810;9.012;2023-07-29T12:17:23;96614.00;;;22.80
8227;BMP180;4154;48.810;9.012;2023-07-29T12:19:49;96618.00;;;22.90
8227;BMP180;4154;48.810;9.012;2023-07-29T12:22:19;96628.00;;;23.00
8227;BMP180;4154;48.810;9.012;2023-07-29T12:24:45;96615.00;;;22.90
8227;BMP180;4154;48.810;9.012;2023-07-29T12:27:13;96622.00;;;23.00
8227;BMP180;4154;48.810;9.012;2023-07-29T12:29:42;96615.00;;;23.10
8227;BMP180;4154;48.810;9.012;2023-07-29T12:32:09;96624.00;;;23.10
8227;BMP180;4154;48.810;9.012;2023-07-29T12:34:38;96610.00;;;23.10
8227;BMP180;4154;48.810;9.012;2023-07-29T12:37:05;96619.00;;;23.20
8227;BMP180;4154;48.810;9.012;2023-07-29T12:39:40;96626.00;;;23.20
8227;BMP180;4154;48.810;9.012;2023-07-29T12:42:07;96610.00;;;23.30
8227;BMP180;4154;48.810;9.012;2023-07-29T12:44:36;96611.00;;;23.40
8227;BMP180;4154;48.810;9.012;2023-07-29T12:47:04;96620.00;;;23.50
8227;BMP180;4154;48.810;9.012;2023-07-29T12:49:30;96606.00;;;23.60
8227;BMP180;4154;48.810;9.012;2023-07-29T12:51:57;96614.00;;;23.80
8227;BMP180;4154;48.810;9.012;2023-07-29T12:54:23;96602.00;;;24.00
8227;BMP180;4154;48.810;9.012;2023-07-29T12:56:50;96613.00;;;24.00
8227;BMP180;4154;48.810;9.012;2023-07-29T12:59:16;96604.00;;;24.10
8227;BMP180;4154;48.810;9.012;2023-07-29T13:01:42;96604.00;;;24.10
8227;BMP180;4154;48.810;9.012;2023-07-29T13:04:09;96615.00;;;24.10
8227;BMP180;4154;48.810;9.012;2023-07-29T13:06:35;96611.00;;;24.10
8227;BMP180;4154;48.810;9.012;2023-07-29T13:09:01;96604.00;;;24.20
8227;BMP180;4154;48.810;9.012;2023-07-29T13:11:27;96606.00;;;24.30
8227;BMP180;4154;48.810;9.012;2023-07-29T13:13:53;96602.00;;;24.30
8227;BMP180;4154;48.810;9.012;2023-07-29T13:16:19;96608.00;;;24.30
8227;BMP180;4154;48.810;9.012;2023-07-29T13:18:45;96603.00;;;24.30
8227;BMP180;4154;48.810;9.012;2023-07-29T13:21:11;96602.00;;;24.30
8227;BMP180;4154;48.810;9.012;2023-07-29T13:23:37;96617.00;;;24.40
8227;BMP180;4154;48.810;9.012;2023-07-29T13:26:03;96604.00;;;24.50
8227;BMP180;4154;48.810;9.012;2023-07-29T13:28:30;96617.00;;;24.40
8227;BMP180;4154;48.810;9.012;2023-07-29T13:30:56;96613.00;;;24.30
8227;BMP180;4154;48.810;9.012;2023-07-29T13:33:22;96609.00;;;24.20
8227;BMP180;4154;48.810;9.012;2023-07-29T13:35:48;96610.00;;;24.10
8227;BMP180;4154;48.810;9.012;2023-07-29T13:38:14;96609.00;;;24.10
8227;BMP180;4154;48.810;9.012;2023-07-29T13:40:40;96607.00;;;24.00
8227;BMP180;4154;48.810;9.012;2023-07-29T13:43:06;96598.00;;;23.90
8227;BMP180;4154;48.810;9.012;2023-07-29T13:45:34;96604.00;;;23.90
8227;BMP180;4154;48.810;9.012;2023-07-29T13:48:00;96602.00;;;23.90
8227;BMP180;4154;48.810;9.012;2023-07-29T13:50:26;96602.00;;;23.80
8227;BMP180;4154;48.810;9.012;2023-07-29T13:52:53;96600.00;;;23.90
8227;BMP180;4154;48.810;9.012;2023-07-29T13:55:19;96606.00;;;23.90
8227;BMP180;4154;48.810;9.012;2023-07-29T13:57:45;96601.00;;;23.90
8227;BMP180;4154;48.810;9.012;2023-07-29T14:00:11;96619.00;;;24.00
8227;BMP180;4154;48.810;9.012;2023-07-29T14:02:37;96626.00;;;24.00
8227;BMP180;4154;48.810;9.012;2023-07-29T14:05:04;96629.00;;;24.10
8227;BMP180;4154;48.810;9.012;2023-07-29T14:07:31;96632.00;;;24.30
8227;BMP180;4154;48.810;9.012;2023-07-29T14:09:57;96638.00;;;24.40
8227;BMP180;4154;48.810;9.012;2023-07-29T14:12:23;96637.00;;;24.40
8227;BMP180;4154;48.810;9.012;2023-07-29T14:14:49;96628.00;;;24.50
8227;BMP180;4154;48.810;9.012;2023-07-29T14:17:15;96636.00;;;24.60
8227;BMP180;4154;48.810;9.012;2023-07-29T14:19:41;96635.00;;;24.70
8227;BMP180;4154;48.810;9.012;2023-07-29T14:22:07;96637.00;;;24.80
8227;BMP180;4154;48.810;9.012;2023-07-29T14:24:33;96640.00;;;24.70
8227;BMP180;4154;48.810;9.012;2023-07-29T14:26:59;96632.00;;;24.60
8227;BMP180;4154;48.810;9.012;2023-07-29T14:29:25;96632.00;;;24.50
8227;BMP180;4154;48.810;9.012;2023-07-29T14:31:51;96642.00;;;24.40
8227;BMP180;4154;48.810;9.012;2023-07-29T14:34:18;96633.00;;;24.20
8227;BMP180;4154;48.810;9.012;2023-07-29T14:36:44;96631.00;;;24.10
8227;BMP180;4154;48.810;9.012;2023-07-29T14:39:10;96628.00;;;24.10
8227;BMP180;4154;48.810;9.012;2023-07-29T14:41:36;96636.00;;;24.00
8227;BMP180;4154;48.810;9.012;2023-07-29T14:44:02;96625.00;;;23.90
8227;BMP180;4154;48.810;9.012;2023-07-29T14:46:28;96638.00;;;24.00
8227;BMP180;4154;48.810;9.012;2023-07-29T14:48:54;96632.00;;;24.00
8227;BMP180;4154;48.810;9.012;2023-07-29T14:51:20;96619.00;;;24.00
8227;BMP180;4154;48.810;9.012;2023-07-29T14:53:46;96625.00;;;24.00